createdAt,value
2022-08-11T00:01:27.366Z,3.47
2022-08-11T00:04:01.153Z,2.80
2022-08-11T00:06:39.378Z,2.88
2022-08-11T00:09:16.810Z,2.88
2022-08-11T00:11:46.200Z,3.10
2022-08-11T00:14:20.238Z,2.78
2022-08-11T00:17:05.882Z,3.47
2022-08-11T00:20:12.751Z,2.95
2022-08-11T00:22:25.077Z,2.45
2022-08-11T00:24:58.546Z,3.38
2022-08-11T00:27:34.340Z,3.92
2022-08-11T00:30:02.667Z,3.45
2022-08-11T00:32:30.764Z,3.50
2022-08-11T00:35:53.663Z,3.70
2022-08-11T00:37:50.749Z,4.18
2022-08-11T00:40:42.142Z,3.80
2022-08-11T00:43:20.042Z,3.65
2022-08-11T00:46:11.457Z,4.60
2022-08-11T00:48:50.383Z,4.13
2022-08-11T00:52:04.013Z,4.30
2022-08-11T00:54:39.073Z,4.13
2022-08-11T00:57:38.243Z,4.53
2022-08-11T01:00:11.315Z,3.50
2022-08-11T01:02:57.112Z,3.80
2022-08-11T01:05:58.415Z,4.18
2022-08-11T01:09:22.328Z,3.85
2022-08-11T01:12:39.448Z,4.43
2022-08-11T01:15:22.017Z,3.88
2022-08-11T01:18:28.410Z,3.38
2022-08-11T01:21:23.953Z,3.75
2022-08-11T01:24:38.470Z,3.65
2022-08-11T01:27:26.751Z,3.70
2022-08-11T01:30:16.058Z,3.47
2022-08-11T01:33:28.538Z,3.50
2022-08-11T01:36:16.425Z,3.78
2022-08-11T01:39:05.221Z,3.67
2022-08-11T01:42:22.246Z,4.72
2022-08-11T01:44:52.544Z,3.92
2022-08-11T01:47:53.003Z,3.60
2022-08-11T01:51:01.799Z,4.07
2022-08-11T01:53:44.487Z,3.90
2022-08-11T01:56:34.474Z,3.78
2022-08-11T01:59:28.197Z,3.85
2022-08-11T02:02:43.267Z,4.13
2022-08-11T02:05:31.841Z,4.30
2022-08-11T02:08:18.303Z,3.83
2022-08-11T02:11:35.487Z,3.95
2022-08-11T02:14:25.058Z,4.38
2022-08-11T02:17:18.331Z,4.40
2022-08-11T02:20:28.973Z,3.97
2022-08-11T02:24:05.667Z,4.43
2022-08-11T02:26:20.472Z,4.85
2022-08-11T02:28:56.415Z,4.43
2022-08-11T02:32:24.025Z,4.60
2022-08-11T02:35:01.613Z,5.40
2022-08-11T02:37:34.533Z,5.20
2022-08-11T02:40:16.976Z,5.53
2022-08-11T02:42:47.568Z,5.68
2022-08-11T02:45:31.423Z,5.68
2022-08-11T02:48:27.439Z,5.65
2022-08-11T02:51:21.865Z,4.80
2022-08-11T02:54:21.305Z,6.35
2022-08-11T02:56:57.334Z,6.47
2022-08-11T02:59:56.871Z,6.07
2022-08-11T03:02:28.019Z,6.18
2022-08-11T03:05:17.115Z,5.78
2022-08-11T03:08:10.687Z,6.47
2022-08-11T03:11:41.351Z,5.38
2022-08-11T03:14:52.359Z,6.15
2022-08-11T03:17:28.441Z,6.40
2022-08-11T03:20:21.644Z,6.05
2022-08-11T03:23:06.378Z,6.38
2022-08-11T03:26:06.924Z,6.88
2022-08-11T03:28:51.650Z,6.35
2022-08-11T03:31:34.591Z,7.32
2022-08-11T03:34:09.293Z,7.03
2022-08-11T03:37:14.817Z,6.68
2022-08-11T03:39:38.047Z,6.38
2022-08-11T03:42:56.558Z,5.43
2022-08-11T03:45:49.427Z,6.22
2022-08-11T03:48:21.754Z,5.55
2022-08-11T03:51:01.132Z,6.30
2022-08-11T03:53:43.343Z,5.55
2022-08-11T03:56:42.375Z,4.95
2022-08-11T03:59:34.987Z,4.65
2022-08-11T04:02:21.078Z,5.15
2022-08-11T04:05:14.799Z,5.55
2022-08-11T04:07:57.209Z,4.78
2022-08-11T04:11:02.303Z,4.85
2022-08-11T04:14:19.419Z,4.45
2022-08-11T04:17:13.794Z,4.80
2022-08-11T04:19:59.231Z,4.57
2022-08-11T04:23:04.585Z,4.45
2022-08-11T04:25:34.563Z,4.30
2022-08-11T04:28:49.710Z,4.63
2022-08-11T04:31:51.800Z,3.97
2022-08-11T04:34:55.027Z,3.70
2022-08-11T04:38:08.729Z,3.65
2022-08-11T04:40:36.227Z,3.72
2022-08-11T04:43:24.062Z,3.83
2022-08-11T04:46:18.773Z,3.95
2022-08-11T04:49:34.319Z,3.50
2022-08-11T04:52:41.965Z,3.67
2022-08-11T04:55:58.933Z,3.30
2022-08-11T04:59:29.716Z,3.03
2022-08-11T05:02:17.233Z,2.95
2022-08-11T05:05:28.316Z,3.75
2022-08-11T05:08:29.673Z,2.97
2022-08-11T05:11:22.030Z,4.80
2022-08-11T05:14:32.054Z,3.47
2022-08-11T05:17:27.552Z,3.13
2022-08-11T05:20:13.680Z,2.72
2022-08-11T05:23:09.294Z,3.00
2022-08-11T05:26:44.800Z,2.65
2022-08-11T05:29:19.892Z,2.45
2022-08-11T05:32:18.844Z,2.63
2022-08-11T05:34:56.488Z,2.70
2022-08-11T05:37:29.747Z,2.35
2022-08-11T05:40:31.018Z,2.20
2022-08-11T05:43:19.823Z,1.75
2022-08-11T05:46:23.679Z,2.50
2022-08-11T05:49:11.354Z,2.78
2022-08-11T05:52:05.465Z,2.22
2022-08-11T05:55:06.007Z,2.30
2022-08-11T05:57:49.942Z,1.70
2022-08-11T06:00:20.433Z,2.13
2022-08-11T06:02:57.738Z,1.98
2022-08-11T06:05:38.471Z,1.38
2022-08-11T06:08:13.874Z,1.80
2022-08-11T06:10:45.057Z,1.95
2022-08-11T06:13:16.740Z,1.40
2022-08-11T06:15:53.046Z,1.48
2022-08-11T06:18:21.024Z,1.63
2022-08-11T06:20:54.232Z,1.42
2022-08-11T06:23:24.161Z,1.50
2022-08-11T06:25:56.188Z,1.83
2022-08-11T06:28:37.263Z,1.48
2022-08-11T06:31:17.574Z,1.20
2022-08-11T06:33:51.099Z,1.65
2022-08-11T06:36:37.076Z,1.58
2022-08-11T06:39:32.991Z,1.65
2022-08-11T06:42:10.960Z,1.50
2022-08-11T06:44:48.352Z,1.70
2022-08-11T06:47:17.232Z,1.42
2022-08-11T06:50:04.705Z,2.08
2022-08-11T06:52:39.167Z,1.60
2022-08-11T06:55:55.271Z,2.13
2022-08-11T06:58:17.986Z,1.98
2022-08-11T07:00:49.043Z,1.50
2022-08-11T07:03:19.722Z,1.70
2022-08-11T07:06:06.218Z,1.25
2022-08-11T07:09:21.487Z,1.70
2022-08-11T07:12:41.700Z,1.58
2022-08-11T07:16:11.674Z,1.85
2022-08-11T07:18:50.596Z,1.70
2022-08-11T07:24:59.704Z,1.70
2022-08-11T07:27:56.276Z,1.50
2022-08-11T07:30:26.295Z,1.50
2022-08-11T07:32:57.066Z,1.88
2022-08-11T07:35:49.888Z,2.72
2022-08-11T07:38:25.502Z,2.75
2022-08-11T07:40:53.168Z,2.15
2022-08-11T07:43:20.581Z,3.03
2022-08-11T07:46:06.665Z,4.50
2022-08-11T07:48:53.735Z,3.70
2022-08-11T07:51:40.160Z,4.10
2022-08-11T07:54:17.121Z,4.45
2022-08-11T07:57:07.177Z,3.90
2022-08-11T08:00:00.906Z,4.85
2022-08-11T08:03:02.283Z,3.78
2022-08-11T08:05:49.025Z,4.18
2022-08-11T08:08:35.554Z,4.00
2022-08-11T08:11:27.068Z,4.22
2022-08-11T08:14:14.566Z,4.07
2022-08-11T08:17:01.627Z,3.22
2022-08-11T08:19:29.852Z,4.03
2022-08-11T08:22:11.023Z,3.53
2022-08-11T08:24:46.542Z,3.60
2022-08-11T08:27:14.976Z,3.70
2022-08-11T08:30:03.810Z,3.00
2022-08-11T08:32:32.482Z,3.28
2022-08-11T08:35:00.941Z,2.72
2022-08-11T08:37:45.450Z,2.78
2022-08-11T08:40:15.076Z,2.78
2022-08-11T08:43:07.357Z,2.78
2022-08-11T08:45:37.880Z,3.30
2022-08-11T08:48:11.820Z,2.78
2022-08-11T08:51:22.658Z,2.42
2022-08-11T08:53:53.954Z,2.17
2022-08-11T08:56:28.489Z,2.15
2022-08-11T08:58:59.745Z,1.60
2022-08-11T09:01:31.265Z,1.60
2022-08-11T09:04:06.814Z,1.77
2022-08-11T09:06:43.067Z,2.22
2022-08-11T09:09:14.750Z,1.70
2022-08-11T09:11:56.126Z,2.13
2022-08-11T09:14:49.761Z,1.45
2022-08-11T09:17:24.621Z,1.40
2022-08-11T09:20:00.387Z,1.83
2022-08-11T09:23:29.609Z,1.33
2022-08-11T09:26:00.610Z,0.95
2022-08-11T09:28:31.708Z,1.27
2022-08-11T09:31:01.845Z,0.90
2022-08-11T09:33:31.792Z,1.60
2022-08-11T09:36:21.110Z,1.25
2022-08-11T09:39:07.573Z,0.95
2022-08-11T09:42:00.730Z,1.00
2022-08-11T09:44:43.544Z,0.88
2022-08-11T09:47:15.559Z,1.00
2022-08-11T09:49:45.465Z,1.30
2022-08-11T09:52:14.446Z,0.90
2022-08-11T09:54:43.509Z,0.98
2022-08-11T09:57:38.427Z,1.25
2022-08-11T10:00:12.552Z,0.90
2022-08-11T10:02:47.456Z,2.20
2022-08-11T10:05:38.161Z,1.30
2022-08-11T10:08:07.743Z,1.00
2022-08-11T10:10:38.041Z,0.88
2022-08-11T10:14:32.080Z,1.05
2022-08-11T10:16:15.826Z,1.00
2022-08-11T10:18:52.997Z,0.52
2022-08-11T10:21:24.285Z,0.70
2022-08-11T10:24:12.034Z,0.90
2022-08-11T10:26:54.630Z,1.30
2022-08-11T10:29:52.177Z,1.20
2022-08-11T10:32:51.048Z,0.85
2022-08-11T10:35:29.677Z,0.68
2022-08-11T10:38:08.144Z,0.90
2022-08-11T10:40:41.557Z,1.38
2022-08-11T10:43:14.232Z,0.85
2022-08-11T10:46:04.052Z,1.20
2022-08-11T10:48:38.023Z,1.00
2022-08-11T10:51:23.824Z,0.80
2022-08-11T10:54:22.850Z,1.30
2022-08-11T10:57:08.799Z,0.85
2022-08-11T10:59:36.321Z,0.90
2022-08-11T11:02:03.974Z,0.88
2022-08-11T11:05:00.572Z,0.95
2022-08-11T11:07:44.190Z,0.60
2022-08-11T11:10:11.813Z,0.47
2022-08-11T11:13:05.118Z,0.55
2022-08-11T11:15:54.703Z,0.80
2022-08-11T11:18:25.611Z,0.60
2022-08-11T11:21:00.381Z,0.30
2022-08-11T11:23:47.532Z,0.60
2022-08-11T11:26:56.273Z,1.08
2022-08-11T11:29:42.585Z,0.82
2022-08-11T11:32:28.266Z,0.63
2022-08-11T11:35:20.935Z,0.52
2022-08-11T11:38:00.013Z,0.40
2022-08-11T11:43:01.218Z,1.00
2022-08-11T11:45:28.884Z,0.55
2022-08-11T11:47:59.507Z,0.68
2022-08-11T11:50:34.561Z,1.00
2022-08-11T11:53:06.107Z,0.90
2022-08-11T11:58:41.570Z,0.60
2022-08-11T12:01:20.305Z,0.68
2022-08-11T12:03:50.672Z,0.90
2022-08-11T12:06:22.062Z,0.60
2022-08-11T12:08:51.977Z,0.80
2022-08-11T12:11:40.233Z,0.50
2022-08-11T12:14:11.662Z,0.65
2022-08-11T12:16:42.427Z,0.55
2022-08-11T12:19:23.003Z,1.10
2022-08-11T12:22:10.929Z,0.95
2022-08-11T12:24:58.000Z,0.50
2022-08-11T12:27:27.702Z,0.70
2022-08-11T12:30:00.235Z,0.45
2022-08-11T12:32:30.886Z,0.30
2022-08-11T12:34:58.932Z,0.45
2022-08-11T12:37:35.422Z,0.50
2022-08-11T12:40:43.445Z,0.63
2022-08-11T12:43:39.964Z,0.80
2022-08-11T12:46:14.121Z,0.73
2022-08-11T12:49:07.081Z,0.50
2022-08-11T12:52:14.418Z,0.85
2022-08-11T12:54:56.521Z,1.05
2022-08-11T12:57:48.366Z,0.63
2022-08-11T13:00:36.072Z,0.60
2022-08-11T13:03:24.336Z,0.70
2022-08-11T13:05:55.679Z,0.50
2022-08-11T13:08:25.578Z,0.45
2022-08-11T13:11:13.400Z,0.60
2022-08-11T13:13:54.541Z,0.70
2022-08-11T13:16:29.220Z,0.77
2022-08-11T13:19:01.532Z,0.50
2022-08-11T13:21:29.482Z,0.77
2022-08-11T13:24:00.929Z,0.57
2022-08-11T13:26:47.595Z,2.10
2022-08-11T13:29:26.649Z,0.80
2022-08-11T13:31:57.045Z,0.40
2022-08-11T13:34:27.039Z,0.43
2022-08-11T13:37:01.076Z,1.05
2022-08-11T13:39:31.203Z,0.50
2022-08-11T13:42:00.641Z,0.50
2022-08-11T13:44:31.513Z,0.40
2022-08-11T13:47:04.113Z,0.30
2022-08-11T13:49:35.685Z,0.47
2022-08-11T13:52:04.755Z,0.60
2022-08-11T13:54:35.384Z,0.60
2022-08-11T13:57:09.076Z,0.40
2022-08-11T13:59:51.894Z,0.50
2022-08-11T14:02:30.724Z,0.70
2022-08-11T14:05:04.260Z,0.70
2022-08-11T14:07:48.075Z,1.00
2022-08-11T14:10:17.669Z,0.60
2022-08-11T14:13:12.594Z,0.40
2022-08-11T14:15:45.530Z,0.52
2022-08-11T14:18:30.391Z,0.57
2022-08-11T14:21:19.844Z,0.30
2022-08-11T14:23:51.066Z,0.50
2022-08-11T14:29:05.906Z,0.57
2022-08-11T14:31:35.861Z,0.40
2022-08-11T14:34:05.564Z,0.68
2022-08-11T14:36:38.054Z,0.60
2022-08-11T14:39:13.478Z,0.45
2022-08-11T14:42:11.941Z,0.50
2022-08-11T14:45:22.616Z,0.45
2022-08-11T14:47:53.459Z,0.45
2022-08-11T14:50:26.787Z,0.63
2022-08-11T14:53:00.546Z,0.70
2022-08-11T14:55:50.507Z,0.70
2022-08-11T14:58:21.444Z,0.75
2022-08-11T15:01:00.153Z,0.55
2022-08-11T15:03:30.846Z,0.80
2022-08-11T15:06:02.327Z,0.68
2022-08-11T15:08:51.448Z,0.80
2022-08-11T15:11:40.178Z,0.40
2022-08-11T15:14:09.898Z,0.65
2022-08-11T15:16:59.533Z,0.70
2022-08-11T15:19:37.506Z,0.73
2022-08-11T15:22:29.555Z,0.60
2022-08-11T15:24:59.972Z,0.82
2022-08-11T15:27:49.719Z,0.70
2022-08-11T15:30:35.732Z,0.80
2022-08-11T15:33:25.535Z,0.55
2022-08-11T15:36:13.010Z,0.40
2022-08-11T15:38:46.275Z,0.43
2022-08-11T15:41:35.765Z,0.82
2022-08-11T15:44:51.353Z,0.60
2022-08-11T15:47:18.696Z,0.85
2022-08-11T15:50:11.027Z,0.70
2022-08-11T15:52:47.306Z,0.65
2022-08-11T15:55:16.422Z,1.00
2022-08-11T15:58:05.662Z,0.63
2022-08-11T16:01:02.005Z,0.75
2022-08-11T16:04:08.005Z,0.65
2022-08-11T16:06:49.539Z,0.50
2022-08-11T16:10:00.244Z,0.60
2022-08-11T16:12:37.269Z,1.07
2022-08-11T16:15:26.724Z,0.85
2022-08-11T16:17:59.368Z,0.68
2022-08-11T16:20:28.353Z,0.60
2022-08-11T16:23:04.930Z,0.95
2022-08-11T16:27:06.062Z,1.00
2022-08-11T16:28:26.779Z,0.60
2022-08-11T16:30:55.335Z,0.60
2022-08-11T16:33:49.916Z,0.70
2022-08-11T16:36:32.994Z,0.50
2022-08-11T16:39:01.801Z,0.90
2022-08-11T16:41:51.183Z,0.60
2022-08-11T16:44:38.465Z,0.60
2022-08-11T16:47:08.619Z,0.65
2022-08-11T16:49:39.670Z,0.63
2022-08-11T16:52:11.839Z,0.90
2022-08-11T16:54:40.784Z,0.60
2022-08-11T16:57:45.286Z,0.57
2022-08-11T17:00:15.507Z,0.50
2022-08-11T17:03:05.410Z,0.50
2022-08-11T17:05:55.233Z,0.70
2022-08-11T17:08:57.529Z,0.70
2022-08-11T17:11:49.819Z,1.00
2022-08-11T17:14:35.318Z,0.70
2022-08-11T17:17:13.052Z,0.85
2022-08-11T17:20:39.718Z,0.70
2022-08-11T17:22:56.569Z,0.70
2022-08-11T17:25:28.521Z,0.80
2022-08-11T17:27:56.921Z,0.90
2022-08-11T17:30:46.517Z,0.80
2022-08-11T17:33:34.299Z,1.02
2022-08-11T17:36:02.795Z,0.88
2022-08-11T17:38:32.162Z,0.93
2022-08-11T17:41:30.958Z,0.82
2022-08-11T17:44:18.482Z,1.00
2022-08-11T17:47:06.601Z,0.93
2022-08-11T17:49:37.831Z,0.60
2022-08-11T17:52:33.242Z,0.85
2022-08-11T17:55:50.947Z,0.82
2022-08-11T17:58:29.028Z,0.90
2022-08-11T18:01:01.976Z,1.00
2022-08-11T18:03:40.021Z,1.30
2022-08-11T18:09:03.455Z,1.05
2022-08-11T18:12:06.081Z,0.70
2022-08-11T18:14:57.859Z,0.90
2022-08-11T18:17:43.847Z,0.70
2022-08-11T18:20:29.882Z,0.80
2022-08-11T18:23:18.375Z,0.65
2022-08-11T18:26:07.246Z,0.90
2022-08-11T18:29:04.199Z,0.73
2022-08-11T18:31:55.695Z,0.80
2022-08-11T18:34:51.686Z,0.73
2022-08-11T18:37:45.808Z,0.80
2022-08-11T18:40:42.909Z,0.90
2022-08-11T18:43:31.531Z,1.00
2022-08-11T18:46:24.952Z,0.95
2022-08-11T18:49:17.304Z,0.80
2022-08-11T18:52:07.499Z,1.02
2022-08-11T18:54:56.211Z,1.33
2022-08-11T18:57:53.755Z,0.98
2022-08-11T19:00:42.604Z,1.05
2022-08-11T19:03:38.204Z,0.85
2022-08-11T19:06:40.548Z,1.20
2022-08-11T19:09:35.749Z,1.08
2022-08-11T19:12:25.118Z,1.00
2022-08-11T19:15:12.373Z,1.30
2022-08-11T19:18:01.658Z,1.63
2022-08-11T19:20:51.441Z,1.40
2022-08-11T19:23:52.250Z,1.30
2022-08-11T19:26:39.232Z,1.73
2022-08-11T19:30:07.786Z,1.77
2022-08-11T19:32:35.827Z,1.95
2022-08-11T19:35:23.851Z,1.75
2022-08-11T19:38:11.664Z,1.77
2022-08-11T19:40:58.755Z,1.70
2022-08-11T19:43:46.848Z,1.73
2022-08-11T19:46:34.790Z,1.80
2022-08-11T19:49:22.521Z,2.33
2022-08-11T19:52:10.348Z,1.88
2022-08-11T19:54:58.014Z,2.13
2022-08-11T19:57:45.212Z,2.47
2022-08-11T20:00:35.495Z,1.80
2022-08-11T20:03:24.486Z,2.05
2022-08-11T20:06:11.526Z,2.10
2022-08-11T20:09:01.397Z,2.78
2022-08-11T20:11:53.727Z,2.90
2022-08-11T20:14:40.940Z,2.40
2022-08-11T20:17:28.608Z,2.20
2022-08-11T20:20:18.638Z,1.73
2022-08-11T20:23:07.727Z,1.90
2022-08-11T20:25:59.160Z,2.00
2022-08-11T20:28:55.855Z,1.75
2022-08-11T20:31:43.001Z,1.40
2022-08-11T20:34:30.170Z,1.23
2022-08-11T20:37:20.088Z,0.80
2022-08-11T20:40:08.459Z,1.25
2022-08-11T20:42:55.450Z,1.45
2022-08-11T20:45:52.075Z,1.13
2022-08-11T20:48:50.526Z,1.05
2022-08-11T20:51:38.969Z,1.27
2022-08-11T20:54:42.964Z,1.10
2022-08-11T20:58:00.239Z,1.90
2022-08-11T21:00:44.009Z,2.25
2022-08-11T21:03:36.167Z,2.03
2022-08-11T21:06:33.535Z,1.73
2022-08-11T21:09:57.985Z,1.75
2022-08-11T21:15:46.982Z,2.22
2022-08-11T21:18:35.348Z,3.17
2022-08-11T21:21:25.274Z,4.03
2022-08-11T21:24:15.644Z,3.45
2022-08-11T21:27:05.936Z,3.65
2022-08-11T21:29:53.718Z,3.00
2022-08-11T21:32:42.350Z,2.47
2022-08-11T21:35:29.592Z,3.13
2022-08-11T21:38:17.768Z,3.30
2022-08-11T21:41:06.644Z,3.25
2022-08-11T21:43:54.696Z,2.85
2022-08-11T21:46:42.761Z,2.78
2022-08-11T21:49:30.544Z,3.10
2022-08-11T21:52:16.675Z,5.00
2022-08-11T21:55:02.974Z,4.18
2022-08-11T21:57:50.510Z,3.47
2022-08-11T22:00:36.890Z,3.20
2022-08-11T22:03:23.863Z,2.70
2022-08-11T22:06:12.414Z,3.10
2022-08-11T22:08:58.584Z,2.42
2022-08-11T22:11:44.710Z,2.63
2022-08-11T22:14:30.615Z,2.30
2022-08-11T22:17:16.858Z,3.67
2022-08-11T22:20:03.524Z,2.97
2022-08-11T22:22:53.112Z,3.13
2022-08-11T22:25:52.212Z,2.65
2022-08-11T22:28:44.725Z,2.63
2022-08-11T22:31:30.873Z,2.70
2022-08-11T22:34:17.017Z,2.30
2022-08-11T22:37:04.782Z,2.53
2022-08-11T22:40:01.735Z,2.20
2022-08-11T22:42:50.765Z,2.17
2022-08-11T22:45:37.774Z,2.28
2022-08-11T22:48:24.320Z,2.50
2022-08-11T22:51:11.531Z,2.20
2022-08-11T22:53:59.339Z,2.20
2022-08-11T22:56:47.222Z,2.33
2022-08-11T22:59:34.902Z,2.08
2022-08-11T23:02:23.751Z,2.15
2022-08-11T23:05:10.749Z,2.30
2022-08-11T23:07:58.295Z,1.67
2022-08-11T23:10:45.382Z,2.20
2022-08-11T23:13:33.988Z,2.50
2022-08-11T23:16:20.428Z,1.88
2022-08-11T23:19:07.618Z,2.55
2022-08-11T23:21:54.127Z,1.80
2022-08-11T23:24:41.222Z,1.98
2022-08-11T23:27:27.721Z,1.90
2022-08-11T23:30:18.823Z,2.30
2022-08-11T23:33:09.859Z,2.50
2022-08-11T23:36:02.306Z,2.25
2022-08-11T23:38:51.723Z,2.35
2022-08-11T23:41:38.850Z,2.20
2022-08-11T23:44:26.611Z,1.83
2022-08-11T23:47:15.273Z,1.85
2022-08-11T23:50:02.450Z,2.03
2022-08-11T23:52:49.181Z,2.22
2022-08-11T23:55:38.986Z,1.63
2022-08-11T23:58:25.811Z,2.30
